Time;durP1;ratioP1;P1;durP2;ratioP2;P2;SDS_P1;SDS_P2;PMS_P1;PMS_P2;Temp;Humidity;BMP_temperature;BMP_pressure;BME280_temperature;BME280_humidity;BME280_pressure;Samples;Min_cycle;Max_cycle;Signal;HPM_P1;HPM_P2
2022/06/30 00:00:14;;;;;;;3.10;0.67;;;18.40;99.90;;;;;;4995219;28;20664;-85
2022/06/30 00:02:40;;;;;;;2.90;1.00;;;18.40;99.90;;;;;;4994992;28;20630;-86
2022/06/30 00:05:07;;;;;;;4.93;1.20;;;18.40;99.90;;;;;;4995059;28;20229;-84
2022/06/30 00:07:33;;;;;;;6.00;1.20;;;18.40;1.00;;;;;;4994110;28;20409;-84
2022/06/30 00:09:59;;;;;;;2.80;0.60;;;18.30;1.00;;;;;;4993640;28;21142;-84
2022/06/30 00:12:24;;;;;;;2.07;0.93;;;18.20;1.00;;;;;;4994860;28;20416;-83
2022/06/30 00:14:50;;;;;;;2.67;0.90;;;18.10;1.00;;;;;;4995061;28;20190;-85
2022/06/30 00:17:16;;;;;;;2.03;0.63;;;18.20;1.00;;;;;;4993725;28;20183;-83
2022/06/30 00:19:42;;;;;;;2.60;1.10;;;18.10;1.00;;;;;;4994902;28;20179;-83
2022/06/30 00:22:07;;;;;;;1.70;1.47;;;18.20;1.00;;;;;;4994954;28;20581;-84
2022/06/30 00:24:34;;;;;;;1.90;0.80;;;18.10;1.00;;;;;;4993736;28;20595;-84
2022/06/30 00:27:00;;;;;;;1.97;0.90;;;18.00;1.00;;;;;;4992500;28;20190;-83
2022/06/30 00:29:25;;;;;;;2.50;1.40;;;18.10;1.00;;;;;;4994338;28;20505;-83
2022/06/30 00:31:51;;;;;;;1.80;1.13;;;18.10;1.00;;;;;;4994599;28;20696;-83
2022/06/30 00:34:16;;;;;;;2.03;1.40;;;18.10;1.00;;;;;;4994452;28;20264;-83
2022/06/30 00:36:43;;;;;;;2.60;0.77;;;18.00;1.00;;;;;;4994386;28;20191;-82
2022/06/30 00:39:09;;;;;;;2.83;1.27;;;18.00;1.00;;;;;;4993878;28;20189;-84
2022/06/30 00:41:41;;;;;;;1.70;0.77;;;17.90;1.00;;;;;;4994501;28;20894;-84
2022/06/30 00:44:07;;;;;;;1.97;1.23;;;17.90;1.00;;;;;;4993676;28;20221;-83
2022/06/30 00:46:33;;;;;;;3.10;1.50;;;17.80;1.00;;;;;;4994420;28;20788;-83
2022/06/30 00:49:00;;;;;;;3.33;1.73;;;17.70;1.00;;;;;;4993551;28;20416;-84
2022/06/30 00:51:25;;;;;;;1.97;0.97;;;17.80;1.00;;;;;;4993513;28;20943;-83
2022/06/30 00:53:54;;;;;;;1.90;0.83;;;17.70;36.30;;;;;;4993648;28;20426;-83
2022/06/30 00:56:23;;;;;;;2.13;1.40;;;17.70;54.40;;;;;;4993052;28;20179;-83
2022/06/30 00:58:51;;;;;;;3.50;1.60;;;17.60;67.40;;;;;;4993771;28;20432;-83
2022/06/30 01:01:18;;;;;;;2.90;1.53;;;17.70;39.10;;;;;;4993794;28;20520;-84
2022/06/30 01:03:44;;;;;;;2.30;1.40;;;17.60;63.80;;;;;;4993850;28;20427;-84
2022/06/30 01:06:11;;;;;;;2.40;1.23;;;17.60;62.70;;;;;;4993581;28;20479;-83
2022/06/30 01:08:36;;;;;;;1.63;0.70;;;17.40;99.90;;;;;;4992694;28;20177;-84
2022/06/30 01:13:48;;;;;;;2.90;1.63;;;17.30;99.90;;;;;;4994051;28;20193;-84
2022/06/30 01:16:13;;;;;;;2.77;1.63;;;17.10;99.90;;;;;;4991789;28;20427;-82
2022/06/30 01:18:39;;;;;;;1.10;0.60;;;17.10;99.90;;;;;;4993482;28;20183;-83
2022/06/30 01:21:05;;;;;;;2.33;1.20;;;17.00;99.90;;;;;;4993271;28;20169;-83
2022/06/30 01:23:31;;;;;;;3.23;1.93;;;16.90;99.90;;;;;;4992810;28;20174;-83
2022/06/30 01:25:56;;;;;;;3.07;1.30;;;16.90;99.90;;;;;;4992963;28;20465;-83
2022/06/30 01:28:22;;;;;;;3.87;1.13;;;16.90;99.90;;;;;;4992703;28;20627;-83
2022/06/30 01:30:47;;;;;;;4.43;2.10;;;16.80;99.90;;;;;;4992535;28;20210;-84
2022/06/30 01:33:13;;;;;;;3.47;1.80;;;16.80;99.90;;;;;;4992498;28;20259;-83
2022/06/30 01:35:39;;;;;;;4.60;2.00;;;16.80;99.90;;;;;;4993072;28;20169;-83
2022/06/30 01:38:05;;;;;;;2.73;1.70;;;16.80;99.90;;;;;;4992797;28;20413;-84
2022/06/30 01:40:34;;;;;;;2.60;1.60;;;16.80;99.90;;;;;;4992845;28;20314;-83
2022/06/30 01:43:00;;;;;;;2.73;1.63;;;16.70;99.90;;;;;;4992819;28;20418;-82
2022/06/30 01:45:27;;;;;;;2.23;1.60;;;16.70;99.90;;;;;;4992983;28;20616;-83
2022/06/30 01:47:53;;;;;;;2.80;1.57;;;16.60;99.90;;;;;;4993447;28;20448;-83
2022/06/30 01:50:22;;;;;;;4.37;1.77;;;16.50;99.90;;;;;;4992296;28;20527;-83
2022/06/30 01:52:47;;;;;;;4.80;2.07;;;16.50;99.90;;;;;;4992666;28;20819;-83
2022/06/30 01:55:14;;;;;;;2.20;2.00;;;16.40;99.90;;;;;;4992456;28;20417;-83
2022/06/30 01:57:40;;;;;;;3.00;2.17;;;16.40;99.90;;;;;;4991845;28;20271;-83
2022/06/30 02:00:10;;;;;;;2.37;1.60;;;16.30;99.90;;;;;;4993214;28;20416;-83
2022/06/30 02:02:36;;;;;;;3.27;1.60;;;16.20;99.90;;;;;;4992876;28;20401;-83
2022/06/30 02:05:02;;;;;;;3.67;1.43;;;16.20;99.90;;;;;;4992909;28;20500;-83
2022/06/30 02:07:28;;;;;;;6.07;1.87;;;16.20;99.90;;;;;;4992357;28;20768;-83
2022/06/30 02:09:54;;;;;;;2.40;1.57;;;16.00;99.90;;;;;;4992619;28;20415;-83
2022/06/30 02:15:07;;;;;;;4.20;2.20;;;15.90;99.90;;;;;;4993171;28;20186;-83
2022/06/30 02:17:32;;;;;;;5.03;1.77;;;15.90;99.90;;;;;;4993068;28;20419;-83
2022/06/30 02:19:58;;;;;;;2.40;1.77;;;15.90;99.90;;;;;;4995330;28;20423;-83
2022/06/30 02:22:24;;;;;;;3.20;1.60;;;15.90;99.90;;;;;;4996122;28;20251;-85
2022/06/30 02:24:50;;;;;;;5.93;1.97;;;15.80;99.90;;;;;;4995931;28;20630;-84
2022/06/30 02:27:15;;;;;;;3.40;1.93;;;15.80;99.90;;;;;;4997005;28;20414;-83
2022/06/30 02:29:41;;;;;;;3.00;1.70;;;15.80;99.90;;;;;;4996655;28;20596;-83
2022/06/30 02:32:07;;;;;;;3.03;1.73;;;15.70;99.90;;;;;;4997039;28;20173;-83
2022/06/30 02:34:33;;;;;;;2.60;1.63;;;15.70;99.90;;;;;;4996694;28;20537;-84
2022/06/30 02:36:58;;;;;;;2.30;1.67;;;15.70;99.90;;;;;;4996255;28;20418;-83
2022/06/30 02:39:24;;;;;;;5.10;2.77;;;15.70;99.90;;;;;;4995369;28;20212;-83
2022/06/30 02:41:49;;;;;;;2.10;1.53;;;15.70;99.90;;;;;;4995999;28;20764;-83
2022/06/30 02:44:15;;;;;;;2.80;2.47;;;15.70;99.90;;;;;;4996432;28;20173;-84
2022/06/30 02:46:41;;;;;;;2.03;1.63;;;15.70;99.90;;;;;;4995316;28;20429;-83
2022/06/30 02:49:07;;;;;;;3.30;2.20;;;15.70;99.90;;;;;;4996641;28;20598;-83
2022/06/30 02:51:32;;;;;;;3.10;2.17;;;15.80;99.90;;;;;;4995910;28;20445;-83
2022/06/30 02:53:58;;;;;;;3.20;1.80;;;15.80;99.90;;;;;;4995596;28;20625;-83
2022/06/30 02:56:24;;;;;;;2.80;1.57;;;15.80;99.90;;;;;;4995384;28;20870;-82
2022/06/30 02:58:49;;;;;;;2.30;2.00;;;15.80;99.90;;;;;;4995359;28;20413;-82
2022/06/30 03:01:15;;;;;;;2.23;1.77;;;15.90;99.90;;;;;;4995698;28;20192;-83
2022/06/30 03:03:41;;;;;;;2.00;1.73;;;15.90;99.90;;;;;;4995576;28;20241;-82
2022/06/30 03:06:06;;;;;;;2.20;2.00;;;15.80;99.90;;;;;;4995867;28;20550;-82
2022/06/30 03:08:32;;;;;;;3.07;1.97;;;15.80;99.90;;;;;;4995463;28;20169;-83
2022/06/30 03:10:58;;;;;;;3.50;2.23;;;15.70;99.90;;;;;;4995803;28;20179;-81
2022/06/30 03:13:24;;;;;;;8.70;2.20;;;15.70;99.90;;;;;;4995116;28;20543;-82
2022/06/30 03:15:50;;;;;;;3.50;2.73;;;15.70;99.90;;;;;;4995578;28;20412;-83
2022/06/30 03:18:16;;;;;;;2.60;2.40;;;15.70;99.90;;;;;;4995228;28;20177;-85
2022/06/30 03:20:41;;;;;;;3.07;2.27;;;15.70;99.90;;;;;;4995113;28;20181;-85
2022/06/30 03:23:07;;;;;;;3.10;2.30;;;15.70;99.90;;;;;;4993674;28;20218;-84
2022/06/30 03:25:32;;;;;;;4.10;1.73;;;15.70;99.90;;;;;;4994329;28;20318;-84
2022/06/30 03:27:58;;;;;;;4.13;3.00;;;15.70;99.90;;;;;;4976065;28;20173;-83
2022/06/30 03:30:23;;;;;;;2.10;1.67;;;15.70;99.90;;;;;;4994069;28;20206;-84
2022/06/30 03:32:49;;;;;;;5.10;2.37;;;15.70;99.90;;;;;;4993540;28;20186;-85
2022/06/30 03:35:14;;;;;;;3.27;2.60;;;15.70;99.90;;;;;;4995001;28;20793;-84
2022/06/30 03:37:40;;;;;;;4.00;1.77;;;15.70;99.90;;;;;;4994542;28;20201;-85
2022/06/30 03:40:06;;;;;;;4.43;2.63;;;15.80;99.90;;;;;;4994090;28;20232;-85
2022/06/30 03:42:31;;;;;;;3.23;2.30;;;15.80;99.90;;;;;;4994751;28;20179;-85
2022/06/30 03:44:57;;;;;;;2.30;1.83;;;15.80;99.90;;;;;;4994688;28;20873;-84
2022/06/30 03:47:22;;;;;;;3.87;2.50;;;15.80;99.90;;;;;;4994474;28;20209;-84
2022/06/30 03:49:48;;;;;;;4.70;3.47;;;15.80;99.90;;;;;;4994819;28;20187;-84
2022/06/30 03:52:13;;;;;;;3.83;2.00;;;15.90;99.90;;;;;;4994824;28;20178;-83
2022/06/30 03:54:39;;;;;;;3.03;2.10;;;15.90;99.90;;;;;;4993128;28;20182;-84
2022/06/30 03:57:05;;;;;;;4.03;2.37;;;16.00;99.90;;;;;;4994773;28;20181;-84
2022/06/30 03:59:30;;;;;;;3.33;2.43;;;16.00;99.90;;;;;;4992789;28;20178;-84
2022/06/30 04:01:56;;;;;;;3.73;2.40;;;16.00;99.90;;;;;;4994302;28;20214;-84
2022/06/30 04:04:21;;;;;;;2.60;1.83;;;16.10;99.90;;;;;;4993948;28;20186;-83
2022/06/30 04:06:47;;;;;;;6.03;3.00;;;16.20;99.90;;;;;;4994699;28;20251;-84
2022/06/30 04:09:13;;;;;;;4.20;2.13;;;16.30;99.90;;;;;;4994366;28;20168;-84
2022/06/30 04:11:38;;;;;;;3.40;2.53;;;16.30;99.90;;;;;;4994425;28;20422;-84
2022/06/30 04:14:04;;;;;;;3.63;2.50;;;16.40;99.90;;;;;;4994311;28;20190;-84
2022/06/30 04:16:29;;;;;;;4.53;2.30;;;16.50;99.90;;;;;;4994391;28;20268;-84
2022/06/30 04:18:55;;;;;;;3.70;2.87;;;16.50;99.90;;;;;;4994186;28;20246;-83
2022/06/30 04:21:21;;;;;;;2.93;1.83;;;16.50;99.90;;;;;;4993772;28;20177;-83
2022/06/30 04:23:46;;;;;;;6.90;2.90;;;16.50;99.90;;;;;;4993868;28;20168;-84
2022/06/30 04:26:12;;;;;;;2.97;2.07;;;16.50;99.90;;;;;;4994022;28;20503;-84
2022/06/30 04:28:38;;;;;;;3.70;2.70;;;16.60;99.90;;;;;;4994024;28;20174;-84
2022/06/30 04:33:47;;;;;;;5.23;2.40;;;16.70;99.90;;;;;;4994134;28;20197;-84
2022/06/30 04:36:13;;;;;;;3.70;2.77;;;16.80;99.90;;;;;;4993394;28;20930;-84
2022/06/30 04:38:38;;;;;;;3.90;2.67;;;16.80;99.90;;;;;;4993400;28;20185;-84
2022/06/30 04:44:03;;;;;;;3.60;2.23;;;17.00;99.90;;;;;;4960614;28;20507;-84
2022/06/30 04:46:28;;;;;;;3.67;1.67;;;17.20;99.90;;;;;;4993298;28;20932;-84
2022/06/30 04:48:54;;;;;;;2.73;1.80;;;17.20;99.90;;;;;;4993204;28;20251;-84
2022/06/30 04:51:20;;;;;;;7.50;2.83;;;17.30;99.90;;;;;;4993383;28;20271;-83
2022/06/30 04:53:46;;;;;;;3.40;2.33;;;17.30;99.90;;;;;;4992843;28;20184;-84
2022/06/30 04:56:12;;;;;;;3.57;2.60;;;17.40;99.90;;;;;;4992297;28;20438;-83
2022/06/30 04:58:38;;;;;;;3.87;2.23;;;17.50;99.90;;;;;;4993326;28;20605;-84
2022/06/30 05:01:04;;;;;;;3.13;2.23;;;17.70;99.90;;;;;;4992051;28;20424;-84
2022/06/30 05:03:30;;;;;;;4.17;2.90;;;17.90;99.90;;;;;;4993080;28;20430;-83
2022/06/30 05:05:57;;;;;;;4.40;2.37;;;18.20;99.90;;;;;;4991878;28;20283;-84
2022/06/30 05:08:22;;;;;;;6.13;2.60;;;18.30;99.90;;;;;;4992540;28;20816;-85
2022/06/30 05:10:49;;;;;;;5.07;1.83;;;18.30;99.90;;;;;;4991056;28;20436;-84
2022/06/30 05:13:15;;;;;;;4.13;3.07;;;18.40;99.90;;;;;;4993181;28;20189;-84
2022/06/30 05:15:41;;;;;;;4.83;2.00;;;18.60;99.90;;;;;;4991527;28;20431;-86
2022/06/30 05:18:06;;;;;;;4.80;1.97;;;18.70;99.90;;;;;;4993205;28;20469;-83
2022/06/30 05:20:32;;;;;;;2.70;2.20;;;18.80;99.90;;;;;;4991457;28;20173;-84
2022/06/30 05:22:58;;;;;;;3.63;1.80;;;18.90;99.90;;;;;;4992044;28;20174;-83
2022/06/30 05:28:08;;;;;;;2.40;1.60;;;19.30;52.60;;;;;;4992993;28;20186;-85
2022/06/30 05:30:34;;;;;;;4.07;2.07;;;19.50;1.00;;;;;;4993517;28;20415;-86
2022/06/30 05:32:59;;;;;;;4.07;2.33;;;19.70;1.00;;;;;;4994654;28;20174;-83
2022/06/30 05:35:25;;;;;;;5.40;2.33;;;19.90;1.00;;;;;;4993628;28;20698;-83
2022/06/30 05:37:51;;;;;;;4.67;1.97;;;20.10;1.00;;;;;;4993851;28;20242;-84
2022/06/30 05:40:16;;;;;;;2.17;1.50;;;20.20;1.00;;;;;;4993232;28;20227;-83
2022/06/30 05:42:42;;;;;;;2.93;2.67;;;20.40;1.00;;;;;;4993665;28;20539;-84
2022/06/30 05:45:08;;;;;;;4.20;1.87;;;20.50;1.00;;;;;;4993820;28;20218;-84
2022/06/30 05:47:33;;;;;;;3.20;2.70;;;20.40;1.00;;;;;;4993221;28;20175;-83
2022/06/30 05:49:59;;;;;;;6.93;2.83;;;20.60;1.00;;;;;;4994943;28;20509;-82
2022/06/30 05:52:24;;;;;;;3.13;2.00;;;20.60;1.00;;;;;;4994428;28;20643;-83
2022/06/30 05:54:51;;;;;;;3.73;2.10;;;20.90;1.00;;;;;;5000431;28;20529;-86
2022/06/30 05:57:16;;;;;;;7.17;2.70;;;20.90;99.90;;;;;;4998721;28;20174;-82
2022/06/30 05:59:42;;;;;;;4.50;2.50;;;20.90;1.00;;;;;;4999114;28;20450;-85
2022/06/30 06:02:08;;;;;;;5.00;2.13;;;21.20;99.90;;;;;;4999017;28;20172;-83
2022/06/30 06:04:34;;;;;;;3.53;2.03;;;21.40;99.90;;;;;;4997819;28;20672;-84
2022/06/30 06:07:02;;;;;;;5.73;1.97;;;21.60;99.90;;;;;;4998015;28;20176;-82
2022/06/30 06:09:28;;;;;;;5.37;2.67;;;21.80;99.90;;;;;;4998329;28;20469;-83
2022/06/30 06:11:54;;;;;;;7.03;1.40;;;22.00;1.00;;;;;;4997786;28;20759;-82
2022/06/30 06:14:19;;;;;;;7.27;2.53;;;22.10;1.00;;;;;;4997739;28;20466;-85
2022/06/30 06:16:45;;;;;;;7.10;2.53;;;22.30;99.90;;;;;;4997776;28;20649;-81
2022/06/30 06:19:11;;;;;;;5.37;2.00;;;21.90;99.90;;;;;;4997476;28;20178;-82
2022/06/30 06:21:37;;;;;;;4.10;2.77;;;21.90;1.00;;;;;;4998180;28;20168;-81
2022/06/30 06:24:03;;;;;;;3.30;2.20;;;22.10;1.00;;;;;;4997228;28;20448;-82
2022/06/30 06:26:28;;;;;;;3.10;1.87;;;22.60;1.00;;;;;;4997108;28;20871;-81
2022/06/30 06:29:06;;;;;;;3.30;1.90;;;22.70;99.90;;;;;;4997027;28;20171;-81
2022/06/30 06:31:32;;;;;;;6.63;2.17;;;23.00;1.00;;;;;;4997138;28;20175;-83
2022/06/30 06:33:58;;;;;;;4.60;2.33;;;23.10;99.90;;;;;;4997250;28;21013;-82
2022/06/30 06:36:24;;;;;;;5.67;2.43;;;23.00;96.20;;;;;;5009918;28;20414;-81
2022/06/30 06:38:49;;;;;;;3.60;2.20;;;22.80;1.00;;;;;;4995934;28;20183;-81
2022/06/30 06:41:15;;;;;;;3.20;1.70;;;22.90;1.00;;;;;;4977655;28;20194;-84
2022/06/30 06:43:41;;;;;;;3.43;1.97;;;23.00;99.90;;;;;;4975803;28;20179;-82
2022/06/30 06:46:06;;;;;;;3.77;1.40;;;23.30;99.90;;;;;;4977385;28;20219;-84
2022/06/30 06:48:32;;;;;;;3.17;2.20;;;23.20;1.00;;;;;;4977252;28;20167;-81
2022/06/30 06:50:57;;;;;;;4.77;2.60;;;23.70;99.90;;;;;;4976448;28;20179;-81
2022/06/30 06:53:23;;;;;;;2.57;2.37;;;23.10;99.90;;;;;;4976946;28;20550;-83
2022/06/30 06:55:49;;;;;;;4.73;2.20;;;23.30;99.90;;;;;;4977630;28;20186;-81
2022/06/30 06:58:14;;;;;;;4.87;2.60;;;23.60;99.90;;;;;;4977860;28;20171;-93
2022/06/30 07:00:43;;;;;;;4.10;2.40;;;23.90;1.00;;;;;;4978680;28;20253;-82
2022/06/30 07:03:08;;;;;;;5.53;2.40;;;25.30;1.00;;;;;;4979055;28;20211;-89
2022/06/30 07:05:34;;;;;;;4.97;2.30;;;27.10;99.90;;;;;;4977315;28;20465;-89
2022/06/30 07:08:01;;;;;;;3.03;2.73;;;27.70;99.90;;;;;;4977763;28;20199;-90
2022/06/30 07:10:28;;;;;;;7.30;3.53;;;28.20;99.90;;;;;;4978938;28;20213;-89
2022/06/30 07:12:54;;;;;;;3.57;1.70;;;28.10;70.60;;;;;;4977699;28;20816;-89
2022/06/30 07:15:21;;;;;;;4.07;2.10;;;28.60;69.10;;;;;;4977310;28;20949;-89
2022/06/30 07:17:47;;;;;;;4.33;2.80;;;29.00;43.40;;;;;;4979378;28;20282;-84
2022/06/30 07:20:13;;;;;;;4.47;1.90;;;28.90;14.80;;;;;;4978729;28;20506;-82
2022/06/30 07:22:38;;;;;;;3.40;2.20;;;28.90;21.40;;;;;;4977340;28;20411;-90
2022/06/30 07:25:05;;;;;;;4.40;2.37;;;28.40;9.10;;;;;;4978563;28;20693;-92
2022/06/30 07:27:31;;;;;;;5.43;2.70;;;28.70;8.90;;;;;;4978658;28;20169;-91
2022/06/30 07:29:56;;;;;;;3.27;2.00;;;29.20;28.40;;;;;;4979707;28;20766;-83
2022/06/30 07:32:22;;;;;;;5.27;2.57;;;29.90;9.90;;;;;;4979534;28;20180;-83
2022/06/30 07:34:47;;;;;;;3.10;2.80;;;29.10;1.00;;;;;;4978088;28;20191;-85
2022/06/30 07:37:13;;;;;;;4.17;2.23;;;29.10;1.00;;;;;;4977818;28;20180;-85
2022/06/30 07:39:38;;;;;;;3.20;2.07;;;28.90;1.00;;;;;;4987076;28;20215;-82
2022/06/30 07:42:04;;;;;;;2.60;1.83;;;29.60;1.00;;;;;;4998622;28;20259;-91
2022/06/30 07:44:30;;;;;;;3.50;1.70;;;30.30;1.00;;;;;;4998031;28;20190;-87
2022/06/30 07:46:56;;;;;;;3.70;2.20;;;30.40;1.00;;;;;;5005729;28;20735;-90
2022/06/30 07:49:22;;;;;;;2.93;1.50;;;30.90;1.00;;;;;;5006372;28;20172;-83
2022/06/30 07:51:48;;;;;;;3.93;2.27;;;31.20;1.00;;;;;;4994530;28;20180;-86
2022/06/30 07:54:14;;;;;;;4.13;1.93;;;31.30;1.00;;;;;;4995699;28;20182;-83
2022/06/30 07:56:39;;;;;;;3.13;1.80;;;31.80;1.00;;;;;;4995767;28;20518;-83
2022/06/30 07:59:05;;;;;;;1.70;1.57;;;31.80;1.00;;;;;;4996320;28;20180;-83
2022/06/30 08:01:30;;;;;;;3.17;2.10;;;31.60;1.00;;;;;;4995390;28;20266;-82
2022/06/30 08:03:57;;;;;;;2.67;2.07;;;30.30;1.00;;;;;;4995518;28;20176;-83
2022/06/30 08:06:23;;;;;;;4.37;2.27;;;29.80;1.00;;;;;;4995233;28;20566;-82
2022/06/30 08:08:49;;;;;;;4.53;2.03;;;30.00;1.00;;;;;;4995096;28;20422;-82
2022/06/30 08:11:14;;;;;;;2.20;2.00;;;31.00;1.00;;;;;;4996331;28;20426;-82
2022/06/30 08:13:40;;;;;;;4.37;2.10;;;31.50;1.00;;;;;;4997020;28;20182;-94
2022/06/30 08:16:05;;;;;;;3.43;1.73;;;31.70;1.00;;;;;;4997666;28;20271;-85
2022/06/30 08:18:31;;;;;;;3.50;2.00;;;31.50;1.00;;;;;;4997530;28;20190;-82
2022/06/30 08:20:57;;;;;;;2.47;2.00;;;31.80;1.00;;;;;;4996131;28;20176;-84
2022/06/30 08:23:23;;;;;;;3.73;1.80;;;32.20;1.00;;;;;;4995880;28;20187;-83
2022/06/30 08:25:48;;;;;;;2.40;1.53;;;32.50;1.00;;;;;;4995936;28;20215;-86
2022/06/30 08:28:14;;;;;;;4.00;2.07;;;32.80;1.00;;;;;;4996725;28;20211;-83
2022/06/30 08:30:40;;;;;;;2.30;1.80;;;33.30;1.00;;;;;;5002494;28;20175;-83
2022/06/30 08:33:05;;;;;;;1.77;1.67;;;32.70;1.00;;;;;;5000105;28;20164;-83
2022/06/30 08:35:31;;;;;;;2.67;2.00;;;32.80;1.00;;;;;;5000960;28;20254;-83
2022/06/30 08:37:57;;;;;;;2.40;1.83;;;32.50;1.00;;;;;;4999442;28;20179;-83
2022/06/30 08:43:09;;;;;;;4.40;2.27;;;32.40;1.00;;;;;;5003296;28;20182;-83
2022/06/30 08:45:35;;;;;;;3.10;1.93;;;32.50;1.00;;;;;;4996108;28;20474;-92
2022/06/30 08:48:01;;;;;;;1.83;1.57;;;31.80;1.00;;;;;;4995620;28;20418;-84
2022/06/30 08:50:27;;;;;;;2.93;2.17;;;32.10;1.00;;;;;;4998417;28;20171;-84
2022/06/30 08:52:55;;;;;;;2.70;1.80;;;32.30;1.00;;;;;;4997365;28;20507;-87
2022/06/30 08:55:28;;;;;;;1.57;1.20;;;32.00;1.00;;;;;;4995696;28;20518;-83
2022/06/30 08:58:12;;;;;;;2.50;2.30;;;31.30;1.00;;;;;;4994476;28;20411;-82
2022/06/30 09:00:39;;;;;;;3.00;1.97;;;31.60;1.00;;;;;;4995230;28;20589;-83
2022/06/30 09:03:05;;;;;;;2.60;1.60;;;32.20;1.00;;;;;;4993741;28;20788;-84
2022/06/30 09:05:31;;;;;;;2.50;1.93;;;32.40;1.00;;;;;;4994783;28;20990;-82
2022/06/30 09:07:57;;;;;;;3.13;1.80;;;32.10;1.00;;;;;;4994841;28;20431;-90
2022/06/30 09:10:24;;;;;;;3.17;2.03;;;31.80;1.00;;;;;;4996970;28;20583;-83
2022/06/30 09:13:03;;;;;;;2.30;2.10;;;32.20;1.00;;;;;;4996288;28;20419;-83
2022/06/30 09:15:30;;;;;;;2.07;1.87;;;31.90;1.00;;;;;;4998528;28;20419;-84
2022/06/30 09:17:56;;;;;;;3.00;1.57;;;32.40;1.00;;;;;;4994566;28;20458;-83
2022/06/30 09:20:36;;;;;;;1.40;1.30;;;33.20;1.00;;;;;;4993120;28;20427;-85
2022/06/30 09:23:19;;;;;;;3.83;2.33;;;33.70;1.00;;;;;;4993699;28;20595;-83
2022/06/30 09:25:53;;;;;;;1.53;1.43;;;32.40;1.00;;;;;;4994008;28;20474;-83
2022/06/30 09:28:46;;;;;;;2.80;1.77;;;32.70;1.00;;;;;;4993811;28;20515;-83
2022/06/30 09:31:14;;;;;;;2.40;1.90;;;33.00;1.00;;;;;;4987841;28;20451;-84
2022/06/30 09:33:44;;;;;;;2.37;1.70;;;32.90;1.00;;;;;;4994258;28;20924;-83
2022/06/30 09:36:28;;;;;;;4.03;2.10;;;33.20;1.00;;;;;;4994503;28;20418;-84
2022/06/30 09:39:08;;;;;;;1.70;1.60;;;33.90;1.00;;;;;;4992492;28;20433;-83
2022/06/30 09:41:42;;;;;;;3.00;1.90;;;32.80;1.00;;;;;;4994306;28;20414;-83
2022/06/30 09:44:20;;;;;;;2.13;1.93;;;33.60;1.00;;;;;;4992874;28;20509;-83
2022/06/30 09:46:56;;;;;;;1.77;1.67;;;33.00;1.00;;;;;;4994142;28;20434;-85
2022/06/30 09:49:34;;;;;;;2.83;1.97;;;33.60;1.00;;;;;;4993787;28;20500;-82
2022/06/30 09:52:03;;;;;;;2.43;2.20;;;32.40;1.00;;;;;;4993639;28;20425;-84
2022/06/30 09:54:32;;;;;;;2.20;1.77;;;31.50;1.00;;;;;;4993658;28;20403;-83
2022/06/30 09:57:04;;;;;;;2.53;2.13;;;32.60;1.00;;;;;;4993645;28;20906;-83
2022/06/30 09:59:30;;;;;;;3.83;3.10;;;33.40;1.00;;;;;;4993894;28;20816;-85
2022/06/30 10:01:56;;;;;;;2.00;1.60;;;33.20;1.00;;;;;;4993721;28;20419;-83
2022/06/30 10:04:21;;;;;;;3.10;2.90;;;32.90;1.00;;;;;;4993568;28;20586;-83
2022/06/30 10:06:47;;;;;;;2.63;2.07;;;32.90;1.00;;;;;;4993315;28;20179;-84
2022/06/30 10:09:20;;;;;;;3.27;2.60;;;32.30;1.00;;;;;;4993890;28;20590;-83
2022/06/30 10:11:46;;;;;;;3.10;2.57;;;32.90;1.00;;;;;;4993617;28;20659;-83
2022/06/30 10:14:15;;;;;;;2.37;2.10;;;34.00;1.00;;;;;;4993587;28;20406;-83
2022/06/30 10:16:41;;;;;;;2.83;2.10;;;34.20;1.00;;;;;;4996861;28;20433;-93
2022/06/30 10:19:12;;;;;;;3.20;3.00;;;34.10;1.00;;;;;;4997919;28;20438;-88
2022/06/30 10:21:39;;;;;;;2.30;2.10;;;34.40;1.00;;;;;;4994745;28;20442;-85
2022/06/30 10:24:05;;;;;;;2.33;2.13;;;34.20;1.00;;;;;;4997191;28;20411;-94
2022/06/30 10:29:17;;;;;;;2.90;2.53;;;34.70;1.00;;;;;;4997544;28;20452;-85
2022/06/30 10:31:51;;;;;;;3.30;1.87;;;34.20;1.00;;;;;;5002631;28;20457;-84
2022/06/30 10:34:24;;;;;;;2.20;1.70;;;34.80;1.00;;;;;;4994813;28;20429;-95
2022/06/30 10:37:08;;;;;;;3.07;2.27;;;34.80;1.00;;;;;;4997169;28;20399;-91
2022/06/30 10:40:14;;;;;;;3.30;2.73;;;33.40;1.00;;;;;;4996740;28;20506;-93
2022/06/30 10:42:48;;;;;;;2.30;2.10;;;34.10;1.00;;;;;;4963850;28;20419;-94
2022/06/30 10:45:26;;;;;;;3.30;3.00;;;33.80;1.00;;;;;;5000105;28;20458;-87
2022/06/30 10:48:02;;;;;;;3.30;2.67;;;34.40;1.00;;;;;;5009212;28;20450;-83
2022/06/30 10:50:38;;;;;;;3.47;2.47;;;34.80;1.00;;;;;;5001970;28;20950;-83
2022/06/30 10:53:06;;;;;;;3.50;2.60;;;34.10;1.00;;;;;;5003391;28;20457;-93
2022/06/30 10:55:53;;;;;;;3.33;2.83;;;34.10;1.00;;;;;;5001954;28;20561;-84
2022/06/30 10:58:22;;;;;;;2.67;2.47;;;34.20;1.00;;;;;;5000576;28;20767;-95
2022/06/30 11:00:50;;;;;;;4.73;2.30;;;33.90;1.00;;;;;;5000384;28;20423;-90
2022/06/30 11:03:37;;;;;;;2.83;2.27;;;33.40;1.00;;;;;;5001115;28;20418;-87
2022/06/30 11:06:07;;;;;;;3.33;2.07;;;34.40;1.00;;;;;;4998550;28;20470;-87
2022/06/30 11:08:57;;;;;;;3.03;2.37;;;34.80;1.00;;;;;;5000362;28;20415;-91
2022/06/30 11:11:23;;;;;;;3.33;2.27;;;34.40;1.00;;;;;;5011117;28;20422;-83
2022/06/30 11:14:10;;;;;;;3.10;2.40;;;34.00;1.00;;;;;;4999669;28;20418;-91
2022/06/30 11:16:37;;;;;;;2.43;2.13;;;33.10;1.00;;;;;;4998054;28;20250;-85
2022/06/30 11:19:12;;;;;;;3.60;2.40;;;33.30;1.00;;;;;;4995159;28;20415;-83
2022/06/30 11:21:42;;;;;;;2.63;2.43;;;33.40;1.00;;;;;;4995586;28;20419;-83
2022/06/30 11:24:09;;;;;;;3.37;3.03;;;32.80;1.00;;;;;;4995990;28;20423;-83
2022/06/30 11:29:26;;;;;;;3.30;2.00;;;33.30;1.00;;;;;;4996212;28;20953;-84
2022/06/30 11:32:01;;;;;;;2.83;2.50;;;33.10;1.00;;;;;;4994795;28;20462;-83
2022/06/30 11:34:28;;;;;;;2.80;1.97;;;33.50;1.00;;;;;;4994732;28;20418;-84
2022/06/30 11:36:54;;;;;;;3.07;2.53;;;33.70;1.00;;;;;;4995536;28;20411;-84
2022/06/30 11:39:20;;;;;;;2.30;2.10;;;33.40;1.00;;;;;;4995568;28;20462;-84
2022/06/30 11:41:57;;;;;;;2.20;2.00;;;32.50;1.00;;;;;;4995892;28;20911;-83
2022/06/30 11:44:34;;;;;;;3.40;3.10;;;33.70;1.00;;;;;;4995913;28;20427;-83
2022/06/30 11:47:01;;;;;;;2.77;1.93;;;;;;;;;;4996026;28;20919;-82
2022/06/30 11:49:48;;;;;;;4.47;1.90;;;34.50;1.00;;;;;;4995908;28;20415;-82
2022/06/30 11:52:21;;;;;;;2.17;2.07;;;34.60;1.00;;;;;;4994824;28;20453;-82
2022/06/30 11:55:00;;;;;;;4.83;2.27;;;34.00;1.00;;;;;;4995723;28;20415;-83
2022/06/30 11:57:31;;;;;;;2.20;2.00;;;34.60;1.00;;;;;;4995590;28;20418;-83
2022/06/30 12:00:33;;;;;;;4.30;2.90;;;35.20;1.00;;;;;;4996008;28;20418;-85
2022/06/30 12:03:03;;;;;;;3.00;2.30;;;34.00;1.00;;;;;;4938067;29;20437;-84
2022/06/30 12:05:28;;;;;;;3.87;2.40;;;33.10;1.00;;;;;;4986085;28;20471;-84
2022/06/30 12:07:55;;;;;;;2.23;2.03;;;33.50;1.00;;;;;;4998522;28;20748;-86
2022/06/30 12:10:23;;;;;;;2.47;2.27;;;34.30;1.00;;;;;;4998466;28;20183;-84
2022/06/30 12:12:49;;;;;;;2.40;2.07;;;34.70;1.00;;;;;;4995755;28;20423;-88
2022/06/30 12:15:16;;;;;;;3.10;2.50;;;34.50;1.00;;;;;;4997499;28;20430;-93
2022/06/30 12:17:44;;;;;;;3.13;2.00;;;33.80;1.00;;;;;;5000958;28;20180;-82
2022/06/30 12:20:13;;;;;;;2.97;2.17;;;32.60;1.00;;;;;;5000757;28;20482;-82
2022/06/30 12:22:47;;;;;;;1.80;1.70;;;33.70;1.00;;;;;;4999079;28;20514;-86
2022/06/30 12:25:14;;;;;;;3.07;2.70;;;34.20;1.00;;;;;;5002993;28;20637;-89
2022/06/30 12:27:44;;;;;;;6.60;2.27;;;34.90;1.00;;;;;;5004237;28;20505;-85
2022/06/30 12:30:16;;;;;;;3.40;2.77;;;34.90;1.00;;;;;;4997376;28;20823;-90
2022/06/30 12:32:42;;;;;;;2.60;2.40;;;33.00;1.00;;;;;;4999348;28;20441;-83
2022/06/30 12:35:12;;;;;;;2.47;2.13;;;33.20;1.00;;;;;;5003092;28;20464;-94
2022/06/30 12:37:43;;;;;;;2.47;2.10;;;34.20;1.00;;;;;;5004975;28;20472;-91
2022/06/30 12:40:14;;;;;;;2.93;1.90;;;34.60;1.00;;;;;;5006602;28;20465;-84
2022/06/30 12:42:55;;;;;;;2.30;2.10;;;34.50;1.00;;;;;;4997618;28;20758;-84
2022/06/30 12:45:39;;;;;;;2.63;2.43;;;34.40;1.00;;;;;;4993426;28;20478;-83
2022/06/30 12:48:06;;;;;;;2.57;2.37;;;34.60;1.00;;;;;;4997930;28;20510;-83
2022/06/30 12:50:33;;;;;;;2.97;2.10;;;35.00;1.00;;;;;;4994659;28;20435;-90
2022/06/30 12:53:19;;;;;;;2.77;2.13;;;33.60;1.00;;;;;;4995134;28;20451;-87
2022/06/30 12:56:05;;;;;;;2.80;1.90;;;32.30;1.00;;;;;;4995057;28;20421;-86
2022/06/30 12:58:49;;;;;;;3.80;2.17;;;31.60;1.00;;;;;;4994457;28;20538;-84
2022/06/30 13:01:17;;;;;;;3.13;1.93;;;33.30;1.00;;;;;;4994733;28;20938;-88
2022/06/30 13:04:21;;;;;;;3.27;1.97;;;33.70;1.00;;;;;;4994368;28;20415;-84
2022/06/30 13:06:52;;;;;;;3.97;2.13;;;32.60;1.00;;;;;;4985412;28;20477;-84
2022/06/30 13:09:19;;;;;;;2.50;2.30;;;31.60;1.00;;;;;;4994751;28;20434;-84
2022/06/30 13:11:50;;;;;;;3.27;2.97;;;32.30;1.00;;;;;;4994275;28;20419;-88
2022/06/30 13:14:21;;;;;;;2.50;2.33;;;33.10;1.00;;;;;;4994389;28;20430;-84
2022/06/30 13:16:47;;;;;;;2.77;2.17;;;33.80;1.00;;;;;;4994664;28;20468;-83
2022/06/30 13:19:17;;;;;;;3.30;2.07;;;34.10;1.00;;;;;;4994998;28;20419;-85